sensor_id;sensor_type;location;lat;lon;timestamp;pressure;altitude;pressure_sealevel;temperature;humidity
9325;BME280;4701;51.566;6.776;2022-09-09T05:00:39;100475.88;;;15.48;99.35
9325;BME280;4701;51.566;6.776;2022-09-09T05:02:42;100470.31;;;15.54;99.46
9325;BME280;4701;51.566;6.776;2022-09-09T05:04:44;100475.81;;;15.54;98.80
9325;BME280;4701;51.566;6.776;2022-09-09T05:06:47;100479.91;;;15.56;98.77
9325;BME280;4701;51.566;6.776;2022-09-09T05:08:50;100471.25;;;15.63;98.48
9325;BME280;4701;51.566;6.776;2022-09-09T05:10:56;100482.22;;;15.63;98.21
9325;BME280;4701;51.566;6.776;2022-09-09T05:12:58;100471.41;;;15.66;98.15
9325;BME280;4701;51.566;6.776;2022-09-09T05:15:03;100470.00;;;15.69;96.72
9325;BME280;4701;51.566;6.776;2022-09-09T05:17:08;100468.28;;;15.73;96.99
9325;BME280;4701;51.566;6.776;2022-09-09T05:19:12;100468.47;;;15.76;96.95
9325;BME280;4701;51.566;6.776;2022-09-09T05:21:25;100463.78;;;15.77;96.92
9325;BME280;4701;51.566;6.776;2022-09-09T05:23:29;100464.00;;;15.80;96.27
9325;BME280;4701;51.566;6.776;2022-09-09T05:25:31;100462.88;;;15.81;96.01
9325;BME280;4701;51.566;6.776;2022-09-09T05:27:34;100456.75;;;15.84;96.00
9325;BME280;4701;51.566;6.776;2022-09-09T05:29:36;100456.94;;;15.88;95.99
9325;BME280;4701;51.566;6.776;2022-09-09T05:31:40;100463.25;;;15.88;95.54
9325;BME280;4701;51.566;6.776;2022-09-09T05:33:47;100454.19;;;15.88;95.49
9325;BME280;4701;51.566;6.776;2022-09-09T05:35:55;100455.53;;;15.91;95.20
9325;BME280;4701;51.566;6.776;2022-09-09T05:37:59;100457.94;;;15.92;95.20
9325;BME280;4701;51.566;6.776;2022-09-09T05:40:02;100460.38;;;15.94;95.03
9325;BME280;4701;51.566;6.776;2022-09-09T05:42:05;100456.66;;;15.89;94.93
9325;BME280;4701;51.566;6.776;2022-09-09T05:44:07;100458.75;;;15.93;95.00
9325;BME280;4701;51.566;6.776;2022-09-09T05:46:14;100456.53;;;15.95;94.69
9325;BME280;4701;51.566;6.776;2022-09-09T05:48:16;100457.94;;;15.92;94.47
9325;BME280;4701;51.566;6.776;2022-09-09T05:50:21;100457.34;;;15.95;94.42
9325;BME280;4701;51.566;6.776;2022-09-09T05:52:26;100469.16;;;15.96;94.50
9325;BME280;4701;51.566;6.776;2022-09-09T05:54:29;100463.13;;;15.94;94.24
9325;BME280;4701;51.566;6.776;2022-09-09T05:56:31;100460.91;;;15.96;94.14
9325;BME280;4701;51.566;6.776;2022-09-09T05:58:34;100468.03;;;15.97;93.95
9325;BME280;4701;51.566;6.776;2022-09-09T06:00:39;100463.94;;;15.94;94.31
9325;BME280;4701;51.566;6.776;2022-09-09T06:02:41;100465.28;;;15.97;94.27
9325;BME280;4701;51.566;6.776;2022-09-09T06:04:47;100468.72;;;16.02;93.91
9325;BME280;4701;51.566;6.776;2022-09-09T06:06:51;100463.34;;;15.97;93.72
9325;BME280;4701;51.566;6.776;2022-09-09T06:08:56;100465.47;;;16.00;93.98
9325;BME280;4701;51.566;6.776;2022-09-09T06:11:02;100466.19;;;16.06;93.73
9325;BME280;4701;51.566;6.776;2022-09-09T06:13:05;100463.22;;;16.02;93.52
9325;BME280;4701;51.566;6.776;2022-09-09T06:15:08;100468.28;;;16.09;92.93
9325;BME280;4701;51.566;6.776;2022-09-09T06:17:10;100469.81;;;16.15;93.15
9325;BME280;4701;51.566;6.776;2022-09-09T06:19:12;100458.19;;;16.18;92.62
9325;BME280;4701;51.566;6.776;2022-09-09T06:21:17;100457.25;;;16.22;92.22
9325;BME280;4701;51.566;6.776;2022-09-09T06:23:20;100470.19;;;16.22;91.34
9325;BME280;4701;51.566;6.776;2022-09-09T06:25:23;100473.13;;;16.25;91.39
9325;BME280;4701;51.566;6.776;2022-09-09T06:27:27;100476.38;;;16.27;91.20
9325;BME280;4701;51.566;6.776;2022-09-09T06:29:29;100472.50;;;16.28;91.64
9325;BME280;4701;51.566;6.776;2022-09-09T06:31:32;100474.66;;;16.32;90.95
9325;BME280;4701;51.566;6.776;2022-09-09T06:33:41;100473.03;;;16.31;90.42
9325;BME280;4701;51.566;6.776;2022-09-09T06:35:51;100473.53;;;16.33;89.67
9325;BME280;4701;51.566;6.776;2022-09-09T06:37:54;100479.41;;;16.40;89.93
9325;BME280;4701;51.566;6.776;2022-09-09T06:39:59;100479.78;;;16.47;89.63
9325;BME280;4701;51.566;6.776;2022-09-09T06:42:00;100476.28;;;16.55;88.62
9325;BME280;4701;51.566;6.776;2022-09-09T06:44:21;100483.81;;;16.63;87.97
9325;BME280;4701;51.566;6.776;2022-09-09T06:46:24;100475.81;;;16.75;87.58
9325;BME280;4701;51.566;6.776;2022-09-09T06:48:28;100475.16;;;16.78;86.74
9325;BME280;4701;51.566;6.776;2022-09-09T06:50:30;100485.06;;;16.79;86.17
9325;BME280;4701;51.566;6.776;2022-09-09T06:52:32;100469.84;;;16.82;85.09
9325;BME280;4701;51.566;6.776;2022-09-09T06:54:35;100482.13;;;16.76;84.03
9325;BME280;4701;51.566;6.776;2022-09-09T06:56:41;100480.50;;;16.75;84.25
9325;BME280;4701;51.566;6.776;2022-09-09T06:58:50;100479.69;;;16.74;83.87
9325;BME280;4701;51.566;6.776;2022-09-09T07:01:02;100478.88;;;16.74;83.09
9325;BME280;4701;51.566;6.776;2022-09-09T07:03:09;100492.50;;;16.79;82.87
9325;BME280;4701;51.566;6.776;2022-09-09T07:05:11;100479.91;;;16.86;83.03
9325;BME280;4701;51.566;6.776;2022-09-09T07:07:15;100485.59;;;16.90;83.30
9325;BME280;4701;51.566;6.776;2022-09-09T07:09:18;100489.84;;;16.96;82.92
9325;BME280;4701;51.566;6.776;2022-09-09T07:11:25;100494.91;;;17.02;82.04
9325;BME280;4701;51.566;6.776;2022-09-09T07:13:29;100489.13;;;17.13;82.09
9325;BME280;4701;51.566;6.776;2022-09-09T07:15:31;100494.13;;;17.11;81.58
9325;BME280;4701;51.566;6.776;2022-09-09T07:17:34;100493.34;;;17.19;81.83
9325;BME280;4701;51.566;6.776;2022-09-09T07:19:36;100498.75;;;17.24;81.14
9325;BME280;4701;51.566;6.776;2022-09-09T07:21:39;100501.00;;;17.22;81.01
9325;BME280;4701;51.566;6.776;2022-09-09T07:23:43;100501.00;;;17.22;80.81
9325;BME280;4701;51.566;6.776;2022-09-09T07:25:46;100494.88;;;17.25;81.07
9325;BME280;4701;51.566;6.776;2022-09-09T07:27:50;100501.34;;;17.29;80.13
9325;BME280;4701;51.566;6.776;2022-09-09T07:29:54;100497.47;;;17.30;80.30
9325;BME280;4701;51.566;6.776;2022-09-09T07:31:56;100496.69;;;17.38;80.19
9325;BME280;4701;51.566;6.776;2022-09-09T07:34:05;100498.97;;;17.45;79.61
9325;BME280;4701;51.566;6.776;2022-09-09T07:36:10;100494.97;;;17.51;79.56
9325;BME280;4701;51.566;6.776;2022-09-09T07:38:14;100503.41;;;17.54;78.18
9325;BME280;4701;51.566;6.776;2022-09-09T07:40:17;100504.16;;;17.68;77.17
9325;BME280;4701;51.566;6.776;2022-09-09T07:42:22;100499.75;;;17.67;75.53
9325;BME280;4701;51.566;6.776;2022-09-09T07:44:25;100502.69;;;17.71;75.93
9325;BME280;4701;51.566;6.776;2022-09-09T07:46:36;100496.81;;;17.64;76.63
9325;BME280;4701;51.566;6.776;2022-09-09T07:48:44;100498.94;;;17.67;76.12
9325;BME280;4701;51.566;6.776;2022-09-09T07:50:46;100504.16;;;17.68;76.84
9325;BME280;4701;51.566;6.776;2022-09-09T07:52:48;100504.28;;;17.63;75.78
9325;BME280;4701;51.566;6.776;2022-09-09T07:54:50;100507.53;;;17.65;75.85
9325;BME280;4701;51.566;6.776;2022-09-09T07:56:53;100495.53;;;17.70;75.21
9325;BME280;4701;51.566;6.776;2022-09-09T07:58:58;100506.25;;;17.71;74.86
9325;BME280;4701;51.566;6.776;2022-09-09T08:01:00;100509.00;;;17.71;75.67
9325;BME280;4701;51.566;6.776;2022-09-09T08:03:09;100501.06;;;17.78;75.73
9325;BME280;4701;51.566;6.776;2022-09-09T08:05:12;100506.28;;;17.80;75.95
9325;BME280;4701;51.566;6.776;2022-09-09T08:07:15;100511.66;;;17.85;75.93
9325;BME280;4701;51.566;6.776;2022-09-09T08:09:23;100511.19;;;17.92;74.23
9325;BME280;4701;51.566;6.776;2022-09-09T08:11:29;100508.75;;;17.99;73.88
9325;BME280;4701;51.566;6.776;2022-09-09T08:13:33;100502.44;;;18.07;73.16
9325;BME280;4701;51.566;6.776;2022-09-09T08:15:38;100520.91;;;17.98;71.83
9325;BME280;4701;51.566;6.776;2022-09-09T08:17:40;100517.00;;;17.90;70.59
9325;BME280;4701;51.566;6.776;2022-09-09T08:19:44;100518.13;;;17.89;70.82
9325;BME280;4701;51.566;6.776;2022-09-09T08:21:51;100517.97;;;17.77;70.33
9325;BME280;4701;51.566;6.776;2022-09-09T08:23:54;100506.91;;;17.68;70.32
9325;BME280;4701;51.566;6.776;2022-09-09T08:26:03;100526.03;;;17.73;69.96
9325;BME280;4701;51.566;6.776;2022-09-09T08:28:05;100519.38;;;17.66;69.58
9325;BME280;4701;51.566;6.776;2022-09-09T08:30:08;100520.50;;;17.65;69.51
9325;BME280;4701;51.566;6.776;2022-09-09T08:32:10;100520.81;;;17.63;69.56
9325;BME280;4701;51.566;6.776;2022-09-09T08:34:14;100519.69;;;17.64;70.46
9325;BME280;4701;51.566;6.776;2022-09-09T08:36:20;100518.41;;;17.70;71.32
9325;BME280;4701;51.566;6.776;2022-09-09T08:38:22;100521.38;;;17.83;70.33
9325;BME280;4701;51.566;6.776;2022-09-09T08:40:29;100516.66;;;17.83;69.73
9325;BME280;4701;51.566;6.776;2022-09-09T08:42:38;100524.44;;;17.81;69.69
9325;BME280;4701;51.566;6.776;2022-09-09T08:44:52;100523.47;;;17.77;68.91
9325;BME280;4701;51.566;6.776;2022-09-09T08:47:06;100520.25;;;17.92;69.08
9325;BME280;4701;51.566;6.776;2022-09-09T08:49:36;100526.47;;;18.15;69.78
9325;BME280;4701;51.566;6.776;2022-09-09T08:51:44;100510.56;;;18.38;67.96
9325;BME280;4701;51.566;6.776;2022-09-09T08:53:48;100517.25;;;18.54;67.18
9325;BME280;4701;51.566;6.776;2022-09-09T08:55:52;100508.31;;;18.74;66.63
9325;BME280;4701;51.566;6.776;2022-09-09T08:58:11;100514.47;;;18.80;65.76
9325;BME280;4701;51.566;6.776;2022-09-09T09:00:15;100508.31;;;18.83;65.48
9325;BME280;4701;51.566;6.776;2022-09-09T09:02:21;100509.44;;;18.73;65.68
9325;BME280;4701;51.566;6.776;2022-09-09T09:04:37;100509.13;;;18.83;65.56
9325;BME280;4701;51.566;6.776;2022-09-09T09:06:49;100513.69;;;18.88;65.26
9325;BME280;4701;51.566;6.776;2022-09-09T09:08:59;100514.81;;;18.78;65.49
9325;BME280;4701;51.566;6.776;2022-09-09T09:11:03;100508.94;;;18.80;66.40
9325;BME280;4701;51.566;6.776;2022-09-09T09:13:12;100520.34;;;18.78;65.84
9325;BME280;4701;51.566;6.776;2022-09-09T09:15:19;100519.22;;;18.79;65.83
9325;BME280;4701;51.566;6.776;2022-09-09T09:17:25;100519.34;;;18.83;66.35
9325;BME280;4701;51.566;6.776;2022-09-09T09:19:30;100532.66;;;18.89;65.42
9325;BME280;4701;51.566;6.776;2022-09-09T09:21:37;100523.56;;;18.89;64.83
9325;BME280;4701;51.566;6.776;2022-09-09T09:23:57;100533.34;;;18.78;64.89
9325;BME280;4701;51.566;6.776;2022-09-09T09:26:00;100530.72;;;18.73;65.31
9325;BME280;4701;51.566;6.776;2022-09-09T09:28:11;100528.78;;;18.65;65.21
9325;BME280;4701;51.566;6.776;2022-09-09T09:30:19;100530.59;;;18.61;65.69
9325;BME280;4701;51.566;6.776;2022-09-09T09:32:24;100526.34;;;18.63;65.03
9325;BME280;4701;51.566;6.776;2022-09-09T09:34:27;100538.38;;;18.67;65.51
9325;BME280;4701;51.566;6.776;2022-09-09T09:36:39;100526.50;;;18.67;64.83
9325;BME280;4701;51.566;6.776;2022-09-09T09:38:54;100525.56;;;18.63;65.25
9325;BME280;4701;51.566;6.776;2022-09-09T09:40:58;100538.56;;;18.62;66.20
9325;BME280;4701;51.566;6.776;2022-09-09T09:43:03;100535.13;;;18.57;65.61
9325;BME280;4701;51.566;6.776;2022-09-09T09:45:15;100533.63;;;18.50;65.43
9325;BME280;4701;51.566;6.776;2022-09-09T09:47:20;100538.66;;;18.48;65.87
9325;BME280;4701;51.566;6.776;2022-09-09T09:49:36;100528.28;;;18.45;65.76
9325;BME280;4701;51.566;6.776;2022-09-09T09:51:39;100541.59;;;18.43;66.09
9325;BME280;4701;51.566;6.776;2022-09-09T09:53:42;100535.91;;;18.40;66.13
9325;BME280;4701;51.566;6.776;2022-09-09T09:55:52;100539.16;;;18.42;66.16
9325;BME280;4701;51.566;6.776;2022-09-09T09:58:01;100540.13;;;18.46;65.82
9325;BME280;4701;51.566;6.776;2022-09-09T10:00:12;100536.38;;;18.42;65.83
9325;BME280;4701;51.566;6.776;2022-09-09T10:02:24;100537.03;;;18.47;64.18
9325;BME280;4701;51.566;6.776;2022-09-09T10:04:35;100535.59;;;18.50;64.64
9325;BME280;4701;51.566;6.776;2022-09-09T10:06:37;100536.56;;;18.54;64.18
9325;BME280;4701;51.566;6.776;2022-09-09T10:08:44;100533.00;;;18.53;64.82
9325;BME280;4701;51.566;6.776;2022-09-09T10:10:57;100533.16;;;18.66;65.29
9325;BME280;4701;51.566;6.776;2022-09-09T10:13:06;100536.56;;;18.80;64.37
9325;BME280;4701;51.566;6.776;2022-09-09T10:15:29;100531.38;;;18.96;62.78
9325;BME280;4701;51.566;6.776;2022-09-09T10:17:36;100521.06;;;19.22;63.25
9325;BME280;4701;51.566;6.776;2022-09-09T10:19:53;100520.22;;;19.30;60.98
9325;BME280;4701;51.566;6.776;2022-09-09T10:22:09;100523.91;;;19.43;61.49
9325;BME280;4701;51.566;6.776;2022-09-09T10:24:35;100517.25;;;19.44;60.44
9325;BME280;4701;51.566;6.776;2022-09-09T10:26:48;100516.28;;;19.40;60.21
9325;BME280;4701;51.566;6.776;2022-09-09T10:29:07;100517.25;;;19.44;60.12
9325;BME280;4701;51.566;6.776;2022-09-09T10:31:19;100512.84;;;19.43;60.01
9325;BME280;4701;51.566;6.776;2022-09-09T10:33:31;100522.78;;;19.52;60.13
9325;BME280;4701;51.566;6.776;2022-09-09T10:35:37;100511.22;;;19.42;60.28
9325;BME280;4701;51.566;6.776;2022-09-09T10:38:10;100518.72;;;19.41;60.64
9325;BME280;4701;51.566;6.776;2022-09-09T10:40:26;100519.03;;;19.40;61.23
9325;BME280;4701;51.566;6.776;2022-09-09T10:42:32;100514.22;;;19.28;61.45
9325;BME280;4701;51.566;6.776;2022-09-09T10:44:46;100508.03;;;19.22;61.76
9325;BME280;4701;51.566;6.776;2022-09-09T10:47:02;100514.59;;;19.09;61.30
9325;BME280;4701;51.566;6.776;2022-09-09T10:49:20;100521.94;;;19.05;62.28
9325;BME280;4701;51.566;6.776;2022-09-09T10:51:34;100511.69;;;18.97;62.47
9325;BME280;4701;51.566;6.776;2022-09-09T10:53:46;100517.88;;;18.94;61.55
9325;BME280;4701;51.566;6.776;2022-09-09T10:55:56;100515.13;;;18.94;61.68
9325;BME280;4701;51.566;6.776;2022-09-09T10:58:03;100512.69;;;18.93;61.62
9325;BME280;4701;51.566;6.776;2022-09-09T11:00:15;100506.66;;;18.90;61.81
9325;BME280;4701;51.566;6.776;2022-09-09T11:02:22;100510.25;;;18.91;62.15
9325;BME280;4701;51.566;6.776;2022-09-09T11:04:31;100507.97;;;18.93;62.39
9325;BME280;4701;51.566;6.776;2022-09-09T11:06:39;100506.00;;;19.02;62.42
9325;BME280;4701;51.566;6.776;2022-09-09T11:08:42;100509.22;;;19.13;61.64
9325;BME280;4701;51.566;6.776;2022-09-09T11:10:50;100507.09;;;19.18;60.87
9325;BME280;4701;51.566;6.776;2022-09-09T11:13:00;100508.00;;;19.31;60.98
9325;BME280;4701;51.566;6.776;2022-09-09T11:15:09;100499.22;;;19.38;59.98
9325;BME280;4701;51.566;6.776;2022-09-09T11:17:18;100502.94;;;19.42;60.41
9325;BME280;4701;51.566;6.776;2022-09-09T11:19:26;100494.97;;;19.49;60.12
9325;BME280;4701;51.566;6.776;2022-09-09T11:21:33;100496.59;;;19.50;60.33
9325;BME280;4701;51.566;6.776;2022-09-09T11:23:40;100493.22;;;19.36;59.72
9325;BME280;4701;51.566;6.776;2022-09-09T11:25:47;100501.22;;;19.28;59.64
9325;BME280;4701;51.566;6.776;2022-09-09T11:28:05;100499.94;;;19.17;60.32
9325;BME280;4701;51.566;6.776;2022-09-09T11:30:18;100490.50;;;19.18;60.38
9325;BME280;4701;51.566;6.776;2022-09-09T11:32:31;100491.34;;;19.10;60.68
9325;BME280;4701;51.566;6.776;2022-09-09T11:34:48;100502.69;;;19.17;60.83
9325;BME280;4701;51.566;6.776;2022-09-09T11:37:11;100495.72;;;19.20;60.62
9325;BME280;4701;51.566;6.776;2022-09-09T11:39:37;100510.63;;;19.27;60.52
9325;BME280;4701;51.566;6.776;2022-09-09T11:41:45;100507.38;;;19.25;60.39
9325;BME280;4701;51.566;6.776;2022-09-09T11:43:48;100503.66;;;19.30;60.26
9325;BME280;4701;51.566;6.776;2022-09-09T11:45:54;100496.44;;;19.46;59.95
9325;BME280;4701;51.566;6.776;2022-09-09T11:48:00;100492.47;;;19.64;59.92
9325;BME280;4701;51.566;6.776;2022-09-09T11:50:10;100491.47;;;19.69;59.39
9325;BME280;4701;51.566;6.776;2022-09-09T11:52:21;100494.22;;;19.69;59.76
9325;BME280;4701;51.566;6.776;2022-09-09T11:54:29;100479.44;;;19.65;59.72
9325;BME280;4701;51.566;6.776;2022-09-09T11:56:33;100484.69;;;19.58;59.51
9325;BME280;4701;51.566;6.776;2022-09-09T11:58:38;100486.19;;;19.47;60.06
9325;BME280;4701;51.566;6.776;2022-09-09T12:00:42;100488.78;;;19.43;60.25
9325;BME280;4701;51.566;6.776;2022-09-09T12:02:49;100479.72;;;19.34;60.42
9325;BME280;4701;51.566;6.776;2022-09-09T12:04:55;100494.34;;;19.35;60.14
9325;BME280;4701;51.566;6.776;2022-09-09T12:07:00;100494.50;;;19.38;61.22
9325;BME280;4701;51.566;6.776;2022-09-09T12:09:07;100497.25;;;19.47;60.94
9325;BME280;4701;51.566;6.776;2022-09-09T12:11:10;100481.97;;;19.41;59.64
9325;BME280;4701;51.566;6.776;2022-09-09T12:13:17;100492.38;;;19.44;59.98
9325;BME280;4701;51.566;6.776;2022-09-09T12:15:25;100494.00;;;19.45;59.88
9325;BME280;4701;51.566;6.776;2022-09-09T12:17:31;100485.53;;;19.41;59.59
9325;BME280;4701;51.566;6.776;2022-09-09T12:19:39;100493.00;;;19.49;60.33
9325;BME280;4701;51.566;6.776;2022-09-09T12:21:45;100494.81;;;19.54;59.25
9325;BME280;4701;51.566;6.776;2022-09-09T12:23:52;100487.78;;;19.56;59.85
9325;BME280;4701;51.566;6.776;2022-09-09T12:26:08;100500.09;;;19.68;59.93
9325;BME280;4701;51.566;6.776;2022-09-09T12:28:18;100501.88;;;19.72;59.56
9325;BME280;4701;51.566;6.776;2022-09-09T12:30:20;100489.19;;;19.71;59.41
9325;BME280;4701;51.566;6.776;2022-09-09T12:32:27;100488.91;;;19.64;59.90
9325;BME280;4701;51.566;6.776;2022-09-09T12:34:36;100492.97;;;19.58;59.87
9325;BME280;4701;51.566;6.776;2022-09-09T12:36:41;100493.47;;;19.60;60.39
9325;BME280;4701;51.566;6.776;2022-09-09T12:38:46;100503.38;;;19.61;59.96
9325;BME280;4701;51.566;6.776;2022-09-09T12:40:54;100492.03;;;19.54;60.55
9325;BME280;4701;51.566;6.776;2022-09-09T12:42:58;100483.59;;;19.42;60.64
9325;BME280;4701;51.566;6.776;2022-09-09T12:45:03;100516.66;;;19.30;63.99
9325;BME280;4701;51.566;6.776;2022-09-09T12:47:06;100527.78;;;19.04;67.03
9325;BME280;4701;51.566;6.776;2022-09-09T12:49:26;100529.44;;;18.87;68.94
9325;BME280;4701;51.566;6.776;2022-09-09T12:51:32;100533.47;;;18.90;69.07
9325;BME280;4701;51.566;6.776;2022-09-09T12:53:39;100541.13;;;18.67;69.30
9325;BME280;4701;51.566;6.776;2022-09-09T12:55:50;100530.59;;;18.69;70.07
9325;BME280;4701;51.566;6.776;2022-09-09T12:57:52;100530.59;;;18.69;69.45
9325;BME280;4701;51.566;6.776;2022-09-09T13:00:07;100525.34;;;18.50;70.16
9325;BME280;4701;51.566;6.776;2022-09-09T13:02:18;100521.31;;;18.57;70.60
9325;BME280;4701;51.566;6.776;2022-09-09T13:04:21;100522.13;;;18.57;71.74
9325;BME280;4701;51.566;6.776;2022-09-09T13:06:28;100517.44;;;18.58;72.50
9325;BME280;4701;51.566;6.776;2022-09-09T13:08:30;100521.59;;;18.55;73.15
9325;BME280;4701;51.566;6.776;2022-09-09T13:10:37;100516.13;;;18.64;73.15
9325;BME280;4701;51.566;6.776;2022-09-09T13:12:41;100525.19;;;18.73;73.03
9325;BME280;4701;51.566;6.776;2022-09-09T13:14:47;100512.38;;;18.77;72.05
9325;BME280;4701;51.566;6.776;2022-09-09T13:16:55;100504.72;;;18.91;72.81
9325;BME280;4701;51.566;6.776;2022-09-09T13:18:59;100500.34;;;18.90;72.10
9325;BME280;4701;51.566;6.776;2022-09-09T13:21:02;100494.38;;;18.79;71.94
9325;BME280;4701;51.566;6.776;2022-09-09T13:23:11;100499.69;;;18.84;72.68
9325;BME280;4701;51.566;6.776;2022-09-09T13:25:19;100495.94;;;18.98;72.25
9325;BME280;4701;51.566;6.776;2022-09-09T13:27:27;100493.81;;;19.03;71.75
9325;BME280;4701;51.566;6.776;2022-09-09T13:29:31;100486.78;;;19.14;71.30
9325;BME280;4701;51.566;6.776;2022-09-09T13:31:36;100496.50;;;19.29;70.86
9325;BME280;4701;51.566;6.776;2022-09-09T13:33:38;100477.63;;;19.31;70.29
9325;BME280;4701;51.566;6.776;2022-09-09T13:35:46;100478.44;;;19.32;69.76
9325;BME280;4701;51.566;6.776;2022-09-09T13:37:49;100481.03;;;19.37;69.78
9325;BME280;4701;51.566;6.776;2022-09-09T13:39:52;100476.66;;;19.27;70.03
9325;BME280;4701;51.566;6.776;2022-09-09T13:41:55;100478.31;;;19.19;70.90
9325;BME280;4701;51.566;6.776;2022-09-09T13:44:00;100475.53;;;19.28;70.88
9325;BME280;4701;51.566;6.776;2022-09-09T13:46:03;100480.88;;;19.33;70.95
9325;BME280;4701;51.566;6.776;2022-09-09T13:48:10;100480.00;;;19.50;70.83
9325;BME280;4701;51.566;6.776;2022-09-09T13:50:19;100474.25;;;19.63;68.50
9325;BME280;4701;51.566;6.776;2022-09-09T13:52:21;100483.31;;;19.73;66.95
9325;BME280;4701;51.566;6.776;2022-09-09T13:54:23;100476.66;;;19.94;66.49
9325;BME280;4701;51.566;6.776;2022-09-09T13:56:25;100464.81;;;20.15;65.52
9325;BME280;4701;51.566;6.776;2022-09-09T13:58:27;100478.75;;;20.48;64.42
9325;BME280;4701;51.566;6.776;2022-09-09T14:00:33;100475.22;;;20.38;63.44
9325;BME280;4701;51.566;6.776;2022-09-09T14:02:35;100476.75;;;20.07;64.38
9325;BME280;4701;51.566;6.776;2022-09-09T14:04:39;100467.81;;;19.80;65.90
9325;BME280;4701;51.566;6.776;2022-09-09T14:06:42;100470.91;;;19.79;66.30
9325;BME280;4701;51.566;6.776;2022-09-09T14:08:44;100460.56;;;19.67;66.07
9325;BME280;4701;51.566;6.776;2022-09-09T14:10:46;100465.84;;;19.51;66.45
9325;BME280;4701;51.566;6.776;2022-09-09T14:12:48;100478.25;;;19.37;65.58
9325;BME280;4701;51.566;6.776;2022-09-09T14:14:50;100469.97;;;19.37;66.03
9325;BME280;4701;51.566;6.776;2022-09-09T14:16:54;100469.28;;;19.40;66.31
9325;BME280;4701;51.566;6.776;2022-09-09T14:18:55;100469.97;;;19.37;66.50
9325;BME280;4701;51.566;6.776;2022-09-09T14:20:57;100465.88;;;19.43;66.64
9325;BME280;4701;51.566;6.776;2022-09-09T14:22:59;100471.88;;;19.45;66.25
9325;BME280;4701;51.566;6.776;2022-09-09T14:25:01;100458.75;;;19.33;66.54
9325;BME280;4701;51.566;6.776;2022-09-09T14:27:04;100467.56;;;19.26;65.99
9325;BME280;4701;51.566;6.776;2022-09-09T14:29:06;100460.13;;;19.18;66.45
9325;BME280;4701;51.566;6.776;2022-09-09T14:31:11;100459.81;;;19.20;67.03
9325;BME280;4701;51.566;6.776;2022-09-09T14:33:15;100465.16;;;19.16;67.13
9325;BME280;4701;51.566;6.776;2022-09-09T14:35:17;100474.13;;;19.13;68.61
9325;BME280;4701;51.566;6.776;2022-09-09T14:37:20;100488.81;;;18.97;71.08
9325;BME280;4701;51.566;6.776;2022-09-09T14:39:22;100491.25;;;18.29;75.72
9325;BME280;4701;51.566;6.776;2022-09-09T14:41:24;100509.56;;;17.51;79.43
9325;BME280;4701;51.566;6.776;2022-09-09T14:43:26;100507.50;;;16.95;83.56
9325;BME280;4701;51.566;6.776;2022-09-09T14:45:28;100520.91;;;16.30;87.77
9325;BME280;4701;51.566;6.776;2022-09-09T14:47:30;100523.41;;;15.76;90.48
9325;BME280;4701;51.566;6.776;2022-09-09T14:49:34;100522.78;;;15.38;95.94
9325;BME280;4701;51.566;6.776;2022-09-09T14:51:36;100520.22;;;15.28;99.58
9325;BME280;4701;51.566;6.776;2022-09-09T14:53:39;100519.59;;;15.18;100.00
9325;BME280;4701;51.566;6.776;2022-09-09T14:55:41;100503.53;;;15.11;100.00
9325;BME280;4701;51.566;6.776;2022-09-09T14:57:43;100510.22;;;15.05;100.00
9325;BME280;4701;51.566;6.776;2022-09-09T14:59:45;100507.25;;;15.01;100.00
9325;BME280;4701;51.566;6.776;2022-09-09T15:01:47;100503.09;;;15.04;100.00
9325;BME280;4701;51.566;6.776;2022-09-09T15:03:51;100513.47;;;15.07;100.00
9325;BME280;4701;51.566;6.776;2022-09-09T15:05:54;100510.00;;;15.01;100.00
9325;BME280;4701;51.566;6.776;2022-09-09T15:07:58;100510.59;;;14.98;100.00
9325;BME280;4701;51.566;6.776;2022-09-09T15:10:00;100510.59;;;14.98;100.00
9325;BME280;4701;51.566;6.776;2022-09-09T15:12:02;100501.66;;;14.93;100.00
9325;BME280;4701;51.566;6.776;2022-09-09T15:14:06;100502.88;;;15.00;100.00
9325;BME280;4701;51.566;6.776;2022-09-09T15:16:10;100498.00;;;14.97;100.00
9325;BME280;4701;51.566;6.776;2022-09-09T15:18:13;100497.91;;;15.02;100.00
9325;BME280;4701;51.566;6.776;2022-09-09T15:20:16;100501.78;;;15.01;100.00
9325;BME280;4701;51.566;6.776;2022-09-09T15:22:19;100486.34;;;15.05;100.00
9325;BME280;4701;51.566;6.776;2022-09-09T15:24:21;100494.78;;;15.09;100.00
9325;BME280;4701;51.566;6.776;2022-09-09T15:26:24;100491.31;;;15.17;100.00
9325;BME280;4701;51.566;6.776;2022-09-09T15:28:26;100481.38;;;15.21;100.00
9325;BME280;4701;51.566;6.776;2022-09-09T15:30:28;100480.38;;;15.31;100.00
9325;BME280;4701;51.566;6.776;2022-09-09T15:32:29;100478.22;;;15.41;100.00
9325;BME280;4701;51.566;6.776;2022-09-09T15:34:32;100469.72;;;15.57;100.00
9325;BME280;4701;51.566;6.776;2022-09-09T15:36:35;100472.22;;;15.67;100.00
9325;BME280;4701;51.566;6.776;2022-09-09T15:38:39;100476.63;;;15.81;100.00
9325;BME280;4701;51.566;6.776;2022-09-09T15:40:41;100472.63;;;15.87;100.00
9325;BME280;4701;51.566;6.776;2022-09-09T15:42:44;100475.47;;;15.96;100.00
9325;BME280;4701;51.566;6.776;2022-09-09T15:44:46;100473.59;;;16.05;100.00
9325;BME280;4701;51.566;6.776;2022-09-09T15:46:50;100477.47;;;16.40;100.00
9325;BME280;4701;51.566;6.776;2022-09-09T15:48:55;100473.44;;;16.82;100.00
9325;BME280;4701;51.566;6.776;2022-09-09T15:51:01;100472.84;;;17.25;100.00
9325;BME280;4701;51.566;6.776;2022-09-09T15:53:04;100480.16;;;17.69;100.00
9325;BME280;4701;51.566;6.776;2022-09-09T15:55:08;100476.78;;;17.89;100.00
9325;BME280;4701;51.566;6.776;2022-09-09T15:57:12;100478.75;;;18.06;100.00
9325;BME280;4701;51.566;6.776;2022-09-09T15:59:14;100480.38;;;18.15;99.76
9325;BME280;4701;51.566;6.776;2022-09-09T16:01:16;100485.91;;;18.24;98.21
9325;BME280;4701;51.566;6.776;2022-09-09T16:03:19;100487.22;;;18.27;96.96
9325;BME280;4701;51.566;6.776;2022-09-09T16:05:21;100486.91;;;18.20;94.60
9325;BME280;4701;51.566;6.776;2022-09-09T16:07:23;100493.34;;;18.15;94.44
9325;BME280;4701;51.566;6.776;2022-09-09T16:09:26;100485.72;;;18.38;96.18
9325;BME280;4701;51.566;6.776;2022-09-09T16:11:30;100488.16;;;18.48;93.55
9325;BME280;4701;51.566;6.776;2022-09-09T16:13:33;100490.78;;;18.19;91.84
9325;BME280;4701;51.566;6.776;2022-09-09T16:15:35;100496.28;;;18.01;92.83